Time,TemperatureF,DewpointF,PressureIn,WindDirection,WindDirectionDegrees,WindSpeedMPH,WindSpeedGustMPH,Humidity,HourlyPrecipIn,Conditions,Clouds,dailyrainin,SoftwareType,DateUTC
2013-06-06 00:00:00,56.0,39.0,30.16,NE,50,1.0,-999.0,52,-99.99,,,-99.99,,2013-06-06 04:00:00,
2013-06-06 00:22:00,56.0,39.0,30.16,NE,50,1.0,-999.0,52,-99.99,,,-99.99,,2013-06-06 04:22:00,
2013-06-06 00:33:00,56.0,39.0,30.16,NE,50,1.0,-999.0,52,-99.99,,,-99.99,,2013-06-06 04:33:00,
2013-06-06 00:42:00,56.0,39.0,30.16,NE,50,1.0,-999.0,52,-99.99,,,-99.99,,2013-06-06 04:42:00,
2013-06-06 00:52:00,56.0,39.0,30.16,NE,50,1.0,-999.0,52,-99.99,,,-99.99,,2013-06-06 04:52:00,
2013-06-06 01:00:00,56.0,39.0,30.16,ENE,60,1.0,-999.0,52,-99.99,,,-99.99,,2013-06-06 05:00:00,
2013-06-06 01:22:00,56.0,39.0,30.16,ENE,60,1.0,-999.0,52,-99.99,,,-99.99,,2013-06-06 05:22:00,
2013-06-06 01:31:00,56.0,39.0,30.16,ENE,60,1.0,-999.0,52,-99.99,,,-99.99,,2013-06-06 05:31:00,
2013-06-06 01:41:00,56.0,39.0,30.16,ENE,60,1.0,-999.0,52,-99.99,,,-99.99,,2013-06-06 05:41:00,
2013-06-06 01:51:00,56.0,39.0,30.16,ENE,60,1.0,-999.0,52,-99.99,,,-99.99,,2013-06-06 05:51:00,
2013-06-06 02:00:00,54.0,40.0,30.14,NE,50,1.0,-999.0,58,-99.99,,,-99.99,,2013-06-06 06:00:00,
2013-06-06 02:21:00,54.0,40.0,30.14,NE,50,1.0,-999.0,58,-99.99,,,-99.99,,2013-06-06 06:21:00,
2013-06-06 02:32:00,54.0,40.0,30.14,NE,50,1.0,-999.0,58,-99.99,,,-99.99,,2013-06-06 06:32:00,
2013-06-06 02:41:00,54.0,40.0,30.14,NE,50,1.0,-999.0,58,-99.99,,,-99.99,,2013-06-06 06:41:00,
2013-06-06 02:52:00,54.0,40.0,30.14,NE,50,1.0,-999.0,58,-99.99,,,-99.99,,2013-06-06 06:52:00,
2013-06-06 03:00:00,54.0,40.0,30.13,NNE,20,1.0,-999.0,58,-99.99,,,-99.99,,2013-06-06 07:00:00,
2013-06-06 03:22:00,54.0,40.0,30.13,NNE,20,1.0,-999.0,58,-99.99,,,-99.99,,2013-06-06 07:22:00,
2013-06-06 03:31:00,54.0,40.0,30.13,NNE,20,1.0,-999.0,58,-99.99,,,-99.99,,2013-06-06 07:31:00,
2013-06-06 03:42:00,54.0,40.0,30.13,NNE,20,1.0,-999.0,58,-99.99,,,-99.99,,2013-06-06 07:42:00,
2013-06-06 03:52:00,54.0,40.0,30.13,NNE,20,1.0,-999.0,58,-99.99,,,-99.99,,2013-06-06 07:52:00,
2013-06-06 04:00:00,54.0,40.0,30.13,NNE,20,1.0,-999.0,59,-99.99,,,-99.99,,2013-06-06 08:00:00,
2013-06-06 04:21:00,54.0,40.0,30.13,NNE,20,1.0,-999.0,59,-99.99,,,-99.99,,2013-06-06 08:21:00,
2013-06-06 04:31:00,54.0,40.0,30.13,NNE,20,1.0,-999.0,59,-99.99,,,-99.99,,2013-06-06 08:31:00,
2013-06-06 04:42:00,54.0,40.0,30.13,NNE,20,1.0,-999.0,59,-99.99,,,-99.99,,2013-06-06 08:42:00,
2013-06-06 04:51:00,54.0,40.0,30.13,NNE,20,1.0,-999.0,59,-99.99,,,-99.99,,2013-06-06 08:51:00,
2013-06-06 05:00:00,54.0,40.0,30.11,NE,40,1.0,-999.0,59,-99.99,,,-99.99,,2013-06-06 09:00:00,
2013-06-06 05:22:00,54.0,40.0,30.11,NE,40,1.0,-999.0,59,-99.99,,,-99.99,,2013-06-06 09:22:00,
2013-06-06 05:32:00,54.0,40.0,30.11,NE,40,1.0,-999.0,59,-99.99,,,-99.99,,2013-06-06 09:32:00,
2013-06-06 05:42:00,54.0,40.0,30.11,NE,40,1.0,-999.0,59,-99.99,,,-99.99,,2013-06-06 09:42:00,
2013-06-06 05:53:00,54.0,40.0,30.11,NE,40,1.0,-999.0,59,-99.99,,,-99.99,,2013-06-06 09:53:00,
2013-06-06 06:00:00,53.0,41.0,30.09,ENE,60,1.0,-999.0,62,-99.99,,,-99.99,,2013-06-06 10:00:00,
2013-06-06 06:22:00,53.0,41.0,30.09,ENE,60,1.0,-999.0,62,-99.99,,,-99.99,,2013-06-06 10:22:00,
2013-06-06 06:32:00,53.0,41.0,30.09,ENE,60,1.0,-999.0,62,-99.99,,,-99.99,,2013-06-06 10:32:00,
2013-06-06 06:41:00,53.0,41.0,30.09,ENE,60,1.0,-999.0,62,-99.99,,,-99.99,,2013-06-06 10:41:00,
2013-06-06 06:52:00,53.0,41.0,30.09,ENE,60,1.0,-999.0,62,-99.99,,,-99.99,,2013-06-06 10:52:00,
2013-06-06 07:00:00,55.0,39.0,30.08,NE,50,1.0,-999.0,55,-99.99,,,-99.99,,2013-06-06 11:00:00,
2013-06-06 07:22:00,55.0,39.0,30.08,NE,50,1.0,-999.0,55,-99.99,,,-99.99,,2013-06-06 11:22:00,
2013-06-06 07:31:00,55.0,39.0,30.08,NE,50,1.0,-999.0,55,-99.99,,,-99.99,,2013-06-06 11:31:00,
2013-06-06 07:42:00,55.0,39.0,30.08,NE,50,1.0,-999.0,55,-99.99,,,-99.99,,2013-06-06 11:42:00,
2013-06-06 07:52:00,55.0,39.0,30.08,NE,50,1.0,-999.0,55,-99.99,,,-99.99,,2013-06-06 11:52:00,
2013-06-06 08:00:00,55.0,40.0,30.09,NNE,30,1.0,-999.0,58,-99.99,,,-99.99,,2013-06-06 12:00:00,
2013-06-06 08:21:00,55.0,40.0,30.09,NNE,30,1.0,-999.0,58,-99.99,,,-99.99,,2013-06-06 12:21:00,
2013-06-06 08:32:00,55.0,40.0,30.09,NNE,30,1.0,-999.0,58,-99.99,,,-99.99,,2013-06-06 12:32:00,
2013-06-06 08:42:00,55.0,40.0,30.09,NNE,30,1.0,-999.0,58,-99.99,,,-99.99,,2013-06-06 12:42:00,
2013-06-06 08:52:00,55.0,40.0,30.09,NNE,30,1.0,-999.0,58,-99.99,,,-99.99,,2013-06-06 12:52:00,
2013-06-06 09:00:00,56.0,41.0,30.08,East,80,9.0,-999.0,56,-99.99,,,-99.99,,2013-06-06 13:00:00,
2013-06-06 09:22:00,56.0,41.0,30.08,East,80,9.0,-999.0,56,-99.99,,,-99.99,,2013-06-06 13:22:00,
2013-06-06 09:31:00,56.0,41.0,30.08,East,80,9.0,-999.0,56,-99.99,,,-99.99,,2013-06-06 13:31:00,
2013-06-06 09:42:00,56.0,41.0,30.08,East,80,9.0,-999.0,56,-99.99,,,-99.99,,2013-06-06 13:42:00,
2013-06-06 09:52:00,56.0,41.0,30.08,East,80,9.0,-999.0,56,-99.99,,,-99.99,,2013-06-06 13:52:00,
2013-06-06 10:00:00,58.0,42.0,30.06,East,90,11.0,-999.0,55,-99.99,,,-99.99,,2013-06-06 14:00:00,
2013-06-06 10:21:00,58.0,42.0,30.06,East,90,11.0,-999.0,55,-99.99,,,-99.99,,2013-06-06 14:21:00,
2013-06-06 10:31:00,58.0,42.0,30.06,East,90,11.0,-999.0,55,-99.99,,,-99.99,,2013-06-06 14:31:00,
2013-06-06 10:42:00,58.0,42.0,30.06,East,90,11.0,-999.0,55,-99.99,,,-99.99,,2013-06-06 14:42:00,
2013-06-06 10:52:00,58.0,42.0,30.06,East,90,11.0,-999.0,55,-99.99,,,-99.99,,2013-06-06 14:52:00,
2013-06-06 11:00:00,57.0,43.0,30.06,ESE,120,9.0,-999.0,59,-99.99,,,-99.99,,2013-06-06 15:00:00,
2013-06-06 11:22:00,57.0,43.0,30.06,ESE,120,9.0,-999.0,59,-99.99,,,-99.99,,2013-06-06 15:22:00,
2013-06-06 11:32:00,57.0,43.0,30.06,ESE,120,9.0,-999.0,59,-99.99,,,-99.99,,2013-06-06 15:32:00,
2013-06-06 11:42:00,57.0,43.0,30.06,ESE,120,9.0,-999.0,59,-99.99,,,-99.99,,2013-06-06 15:42:00,
2013-06-06 11:52:00,57.0,43.0,30.06,ESE,120,9.0,-999.0,59,-99.99,,,-99.99,,2013-06-06 15:52:00,
2013-06-06 12:00:00,60.0,43.0,30.05,SSE,150,7.0,-999.0,53,-99.99,,,-99.99,,2013-06-06 16:00:00,
2013-06-06 12:22:00,60.0,43.0,30.05,SSE,150,7.0,-999.0,53,-99.99,,,-99.99,,2013-06-06 16:22:00,
2013-06-06 12:33:00,60.0,43.0,30.05,SSE,150,7.0,-999.0,53,-99.99,,,-99.99,,2013-06-06 16:33:00,
2013-06-06 12:42:00,60.0,43.0,30.05,SSE,150,7.0,-999.0,53,-99.99,,,-99.99,,2013-06-06 16:42:00,
2013-06-06 12:52:00,60.0,43.0,30.05,SSE,150,7.0,-999.0,53,-99.99,,,-99.99,,2013-06-06 16:52:00,
2013-06-06 13:00:00,59.0,40.0,30.04,SSW,200,9.0,-999.0,49,-99.99,,,-99.99,,2013-06-06 17:00:00,
2013-06-06 13:22:00,59.0,40.0,30.04,SSW,200,9.0,-999.0,49,-99.99,,,-99.99,,2013-06-06 17:22:00,
2013-06-06 13:32:00,59.0,40.0,30.04,SSW,200,9.0,-999.0,49,-99.99,,,-99.99,,2013-06-06 17:32:00,
2013-06-06 13:42:00,59.0,40.0,30.04,SSW,200,9.0,-999.0,49,-99.99,,,-99.99,,2013-06-06 17:42:00,
2013-06-06 13:52:00,59.0,40.0,30.04,SSW,200,9.0,-999.0,49,-99.99,,,-99.99,,2013-06-06 17:52:00,
2013-06-06 14:00:00,67.0,36.0,30.03,NE,40,6.0,-999.0,32,-99.99,,,-99.99,,2013-06-06 18:00:00,
2013-06-06 14:22:00,67.0,36.0,30.03,NE,40,6.0,-999.0,32,-99.99,,,-99.99,,2013-06-06 18:22:00,
2013-06-06 14:33:00,67.0,36.0,30.03,NE,40,6.0,-999.0,32,-99.99,,,-99.99,,2013-06-06 18:33:00,
2013-06-06 14:42:00,67.0,36.0,30.03,NE,40,6.0,-999.0,32,-99.99,,,-99.99,,2013-06-06 18:42:00,
2013-06-06 14:52:00,67.0,36.0,30.03,NE,40,6.0,-999.0,32,-99.99,,,-99.99,,2013-06-06 18:52:00,
2013-06-06 15:00:00,59.0,44.0,30.01,SW,230,7.0,-999.0,57,-99.99,,,-99.99,,2013-06-06 19:00:00,
2013-06-06 15:23:00,59.0,44.0,30.01,SW,230,7.0,-999.0,57,-99.99,,,-99.99,,2013-06-06 19:23:00,
2013-06-06 15:32:00,59.0,44.0,30.01,SW,230,7.0,-999.0,57,-99.99,,,-99.99,,2013-06-06 19:32:00,
2013-06-06 15:42:00,59.0,44.0,30.01,SW,230,7.0,-999.0,57,-99.99,,,-99.99,,2013-06-06 19:42:00,
2013-06-06 15:52:00,59.0,44.0,30.01,SW,230,7.0,-999.0,57,-99.99,,,-99.99,,2013-06-06 19:52:00,
2013-06-06 16:00:00,56.0,48.0,30.00,West,260,5.0,-999.0,74,-99.99,,,-99.99,,2013-06-06 20:00:00,
2013-06-06 16:22:00,56.0,48.0,30.00,West,260,5.0,-999.0,74,-99.99,,,-99.99,,2013-06-06 20:22:00,
2013-06-06 16:32:00,56.0,48.0,30.00,West,260,5.0,-999.0,74,-99.99,,,-99.99,,2013-06-06 20:32:00,
2013-06-06 16:42:00,56.0,48.0,30.00,West,260,5.0,-999.0,74,-99.99,,,-99.99,,2013-06-06 20:42:00,
2013-06-06 16:52:00,56.0,48.0,30.00,West,260,5.0,-999.0,74,-99.99,,,-99.99,,2013-06-06 20:52:00,
2013-06-06 17:00:00,59.0,42.0,30.00,SW,230,6.0,-999.0,53,-99.99,,,-99.99,,2013-06-06 21:00:00,
2013-06-06 17:21:00,59.0,42.0,30.00,SW,230,6.0,-999.0,53,-99.99,,,-99.99,,2013-06-06 21:21:00,
2013-06-06 17:32:00,59.0,42.0,30.00,SW,230,6.0,-999.0,53,-99.99,,,-99.99,,2013-06-06 21:32:00,
2013-06-06 17:43:00,59.0,42.0,30.00,SW,230,6.0,-999.0,53,-99.99,,,-99.99,,2013-06-06 21:43:00,
2013-06-06 17:53:00,59.0,42.0,30.00,SW,230,6.0,-999.0,53,-99.99,,,-99.99,,2013-06-06 21:53:00,
2013-06-06 18:00:00,60.0,43.0,29.99,West,280,3.0,-999.0,52,-99.99,,,-99.99,,2013-06-06 22:00:00,
2013-06-06 18:22:00,60.0,43.0,29.99,West,280,3.0,-999.0,52,-99.99,,,-99.99,,2013-06-06 22:22:00,
2013-06-06 18:33:00,60.0,43.0,29.99,West,280,3.0,-999.0,52,-99.99,,,-99.99,,2013-06-06 22:33:00,
2013-06-06 18:43:00,60.0,43.0,29.99,West,280,3.0,-999.0,52,-99.99,,,-99.99,,2013-06-06 22:43:00,
2013-06-06 18:52:00,60.0,43.0,29.99,West,280,3.0,-999.0,52,-99.99,,,-99.99,,2013-06-06 22:52:00,
2013-06-06 19:00:00,63.0,44.0,30.00,East,90,9.0,-999.0,48,-99.99,,,-99.99,,2013-06-06 23:00:00,
2013-06-06 19:22:00,63.0,44.0,30.00,East,90,9.0,-999.0,48,-99.99,,,-99.99,,2013-06-06 23:22:00,
2013-06-06 19:33:00,63.0,44.0,30.00,East,90,9.0,-999.0,48,-99.99,,,-99.99,,2013-06-06 23:33:00,
2013-06-06 19:42:00,63.0,44.0,30.00,East,90,9.0,-999.0,48,-99.99,,,-99.99,,2013-06-06 23:42:00,
2013-06-06 19:52:00,63.0,44.0,30.00,East,90,9.0,-999.0,48,-99.99,,,-99.99,,2013-06-06 23:52:00,
2013-06-06 20:00:00,61.0,44.0,30.01,East,90,13.0,-999.0,51,-99.99,,,-99.99,,2013-06-07 00:00:00,
2013-06-06 20:21:00,61.0,44.0,30.01,East,90,13.0,-999.0,51,-99.99,,,-99.99,,2013-06-07 00:21:00,
2013-06-06 20:32:00,61.0,44.0,30.01,East,90,13.0,-999.0,51,-99.99,,,-99.99,,2013-06-07 00:32:00,
2013-06-06 20:41:00,61.0,44.0,30.01,East,90,13.0,-999.0,51,-99.99,,,-99.99,,2013-06-07 00:41:00,
2013-06-06 20:52:00,61.0,44.0,30.01,East,90,13.0,-999.0,51,-99.99,,,-99.99,,2013-06-07 00:52:00,
2013-06-06 21:00:00,60.0,45.0,30.00,East,80,9.0,-999.0,58,-99.99,,,-99.99,,2013-06-07 01:00:00,
2013-06-06 21:21:00,60.0,45.0,30.00,East,80,9.0,-999.0,58,-99.99,,,-99.99,,2013-06-07 01:21:00,
2013-06-06 21:32:00,60.0,45.0,30.00,East,80,9.0,-999.0,58,-99.99,,,-99.99,,2013-06-07 01:32:00,
2013-06-06 21:42:00,60.0,45.0,30.00,East,80,9.0,-999.0,58,-99.99,,,-99.99,,2013-06-07 01:42:00,
2013-06-06 21:52:00,60.0,45.0,30.00,East,80,9.0,-999.0,58,-99.99,,,-99.99,,2013-06-07 01:52:00,
2013-06-06 22:00:00,58.0,46.0,29.99,ENE,60,9.0,-999.0,64,-99.99,,,-99.99,,2013-06-07 02:00:00,
2013-06-06 22:21:00,58.0,46.0,29.99,ENE,60,9.0,-999.0,64,-99.99,,,-99.99,,2013-06-07 02:21:00,
2013-06-06 22:32:00,58.0,46.0,29.99,ENE,60,9.0,-999.0,64,-99.99,,,-99.99,,2013-06-07 02:32:00,
2013-06-06 22:42:00,58.0,46.0,29.99,ENE,60,9.0,-999.0,64,-99.99,,,-99.99,,2013-06-07 02:42:00,
2013-06-06 22:52:00,58.0,46.0,29.99,ENE,60,9.0,-999.0,64,-99.99,,,-99.99,,2013-06-07 02:52:00,
2013-06-06 23:00:00,56.0,46.0,30.00,NNE,30,6.0,-999.0,68,-99.99,,,-99.99,,2013-06-07 03:00:00,
2013-06-06 23:21:00,56.0,46.0,30.00,NNE,30,6.0,-999.0,68,-99.99,,,-99.99,,2013-06-07 03:21:00,
2013-06-06 23:32:00,56.0,46.0,30.00,NNE,30,6.0,-999.0,68,-99.99,,,-99.99,,2013-06-07 03:32:00,
2013-06-06 23:43:00,56.0,46.0,30.00,NNE,30,6.0,-999.0,68,-99.99,,,-99.99,,2013-06-07 03:43:00,
2013-06-06 23:52:00,56.0,46.0,30.00,NNE,30,6.0,-999.0,68,-99.99,,,-99.99,,2013-06-07 03:52:00,